sensor_id;sensor_type;location;lat;lon;timestamp;P1;durP1;ratioP1;P2;durP2;ratioP2
10729;SDS011;5416;59.258;18.128;2022-09-02T00:00:38;4.60;;;4.50;;
10729;SDS011;5416;59.258;18.128;2022-09-02T00:03:06;4.57;;;4.47;;
10729;SDS011;5416;59.258;18.128;2022-09-02T00:05:34;4.00;;;3.90;;
10729;SDS011;5416;59.258;18.128;2022-09-02T00:08:01;4.18;;;4.07;;
10729;SDS011;5416;59.258;18.128;2022-09-02T00:10:29;4.45;;;4.35;;
10729;SDS011;5416;59.258;18.128;2022-09-02T00:12:56;4.85;;;4.65;;
10729;SDS011;5416;59.258;18.128;2022-09-02T00:15:25;4.10;;;4.00;;
10729;SDS011;5416;59.258;18.128;2022-09-02T00:17:52;3.92;;;3.83;;
10729;SDS011;5416;59.258;18.128;2022-09-02T00:20:20;4.35;;;4.25;;
10729;SDS011;5416;59.258;18.128;2022-09-02T00:22:47;4.43;;;4.32;;
10729;SDS011;5416;59.258;18.128;2022-09-02T00:25:14;4.55;;;4.43;;
10729;SDS011;5416;59.258;18.128;2022-09-02T00:27:42;4.10;;;4.00;;
10729;SDS011;5416;59.258;18.128;2022-09-02T00:30:09;3.35;;;3.25;;
10729;SDS011;5416;59.258;18.128;2022-09-02T00:32:38;4.40;;;4.30;;
10729;SDS011;5416;59.258;18.128;2022-09-02T00:35:06;4.80;;;4.60;;
10729;SDS011;5416;59.258;18.128;2022-09-02T00:37:33;4.18;;;4.07;;
10729;SDS011;5416;59.258;18.128;2022-09-02T00:40:00;3.67;;;3.57;;
10729;SDS011;5416;59.258;18.128;2022-09-02T00:42:28;3.95;;;3.85;;
10729;SDS011;5416;59.258;18.128;2022-09-02T00:44:55;4.05;;;3.95;;
10729;SDS011;5416;59.258;18.128;2022-09-02T00:47:22;3.88;;;3.78;;
10729;SDS011;5416;59.258;18.128;2022-09-02T00:49:51;4.27;;;4.17;;
10729;SDS011;5416;59.258;18.128;2022-09-02T00:52:22;4.13;;;4.03;;
10729;SDS011;5416;59.258;18.128;2022-09-02T00:54:51;4.25;;;4.15;;
10729;SDS011;5416;59.258;18.128;2022-09-02T00:57:19;4.00;;;3.90;;
10729;SDS011;5416;59.258;18.128;2022-09-02T00:59:49;4.10;;;4.00;;
10729;SDS011;5416;59.258;18.128;2022-09-02T01:02:20;3.65;;;3.55;;
10729;SDS011;5416;59.258;18.128;2022-09-02T01:04:49;3.78;;;3.67;;
10729;SDS011;5416;59.258;18.128;2022-09-02T01:07:22;4.30;;;4.20;;
10729;SDS011;5416;59.258;18.128;2022-09-02T01:09:52;4.50;;;4.40;;
10729;SDS011;5416;59.258;18.128;2022-09-02T01:12:20;4.53;;;4.43;;
10729;SDS011;5416;59.258;18.128;2022-09-02T01:14:48;4.75;;;4.55;;
10729;SDS011;5416;59.258;18.128;2022-09-02T01:17:15;4.43;;;4.32;;
10729;SDS011;5416;59.258;18.128;2022-09-02T01:19:43;4.03;;;3.92;;
10729;SDS011;5416;59.258;18.128;2022-09-02T01:22:17;3.90;;;3.80;;
10729;SDS011;5416;59.258;18.128;2022-09-02T01:24:44;3.90;;;3.80;;
10729;SDS011;5416;59.258;18.128;2022-09-02T01:27:13;3.78;;;3.67;;
10729;SDS011;5416;59.258;18.128;2022-09-02T01:29:40;4.38;;;4.28;;
10729;SDS011;5416;59.258;18.128;2022-09-02T01:32:07;4.25;;;4.15;;
10729;SDS011;5416;59.258;18.128;2022-09-02T01:34:35;4.55;;;4.45;;
10729;SDS011;5416;59.258;18.128;2022-09-02T01:37:02;4.80;;;4.60;;
10729;SDS011;5416;59.258;18.128;2022-09-02T01:39:31;4.20;;;4.10;;
10729;SDS011;5416;59.258;18.128;2022-09-02T01:41:58;4.05;;;3.95;;
10729;SDS011;5416;59.258;18.128;2022-09-02T01:44:27;4.05;;;3.95;;
10729;SDS011;5416;59.258;18.128;2022-09-02T01:46:55;3.97;;;3.88;;
10729;SDS011;5416;59.258;18.128;2022-09-02T01:49:22;3.47;;;3.38;;
10729;SDS011;5416;59.258;18.128;2022-09-02T01:51:52;3.92;;;3.83;;
10729;SDS011;5416;59.258;18.128;2022-09-02T01:54:20;3.40;;;3.30;;
10729;SDS011;5416;59.258;18.128;2022-09-02T01:56:48;3.45;;;3.35;;
10729;SDS011;5416;59.258;18.128;2022-09-02T01:59:16;4.13;;;4.03;;
10729;SDS011;5416;59.258;18.128;2022-09-02T02:01:45;4.55;;;4.45;;
10729;SDS011;5416;59.258;18.128;2022-09-02T02:04:12;4.35;;;4.25;;
10729;SDS011;5416;59.258;18.128;2022-09-02T02:06:40;4.35;;;4.25;;
10729;SDS011;5416;59.258;18.128;2022-09-02T02:09:08;4.18;;;4.07;;
10729;SDS011;5416;59.258;18.128;2022-09-02T02:11:35;4.20;;;4.10;;
10729;SDS011;5416;59.258;18.128;2022-09-02T02:14:04;4.17;;;4.07;;
10729;SDS011;5416;59.258;18.128;2022-09-02T02:16:32;4.32;;;4.22;;
10729;SDS011;5416;59.258;18.128;2022-09-02T02:18:59;4.07;;;3.97;;
10729;SDS011;5416;59.258;18.128;2022-09-02T02:21:26;3.72;;;3.63;;
10729;SDS011;5416;59.258;18.128;2022-09-02T02:23:54;4.10;;;4.00;;
10729;SDS011;5416;59.258;18.128;2022-09-02T02:26:21;3.80;;;3.70;;
10729;SDS011;5416;59.258;18.128;2022-09-02T02:28:49;3.70;;;3.60;;
10729;SDS011;5416;59.258;18.128;2022-09-02T02:31:18;4.30;;;4.20;;
10729;SDS011;5416;59.258;18.128;2022-09-02T02:33:45;4.40;;;4.30;;
10729;SDS011;5416;59.258;18.128;2022-09-02T02:36:13;4.50;;;4.40;;
10729;SDS011;5416;59.258;18.128;2022-09-02T02:38:40;4.15;;;4.05;;
10729;SDS011;5416;59.258;18.128;2022-09-02T02:41:10;4.50;;;4.40;;
10729;SDS011;5416;59.258;18.128;2022-09-02T02:43:37;4.22;;;4.13;;
10729;SDS011;5416;59.258;18.128;2022-09-02T02:46:05;3.75;;;3.65;;
10729;SDS011;5416;59.258;18.128;2022-09-02T02:48:34;3.63;;;3.53;;
10729;SDS011;5416;59.258;18.128;2022-09-02T02:51:02;3.55;;;3.45;;
10729;SDS011;5416;59.258;18.128;2022-09-02T02:53:29;4.18;;;4.07;;
10729;SDS011;5416;59.258;18.128;2022-09-02T02:55:57;4.88;;;4.68;;
10729;SDS011;5416;59.258;18.128;2022-09-02T02:58:25;4.40;;;4.30;;
10729;SDS011;5416;59.258;18.128;2022-09-02T03:00:52;4.28;;;4.18;;
10729;SDS011;5416;59.258;18.128;2022-09-02T03:03:20;3.83;;;3.73;;
10729;SDS011;5416;59.258;18.128;2022-09-02T03:05:49;3.88;;;3.78;;
10729;SDS011;5416;59.258;18.128;2022-09-02T03:08:16;3.93;;;3.83;;
10729;SDS011;5416;59.258;18.128;2022-09-02T03:10:45;4.05;;;3.95;;
10729;SDS011;5416;59.258;18.128;2022-09-02T03:13:13;4.10;;;4.00;;
10729;SDS011;5416;59.258;18.128;2022-09-02T03:15:41;4.20;;;4.10;;
10729;SDS011;5416;59.258;18.128;2022-09-02T03:18:08;4.50;;;4.40;;
10729;SDS011;5416;59.258;18.128;2022-09-02T03:20:35;4.40;;;4.30;;
10729;SDS011;5416;59.258;18.128;2022-09-02T03:23:04;4.40;;;4.30;;
10729;SDS011;5416;59.258;18.128;2022-09-02T03:25:32;4.25;;;4.15;;
10729;SDS011;5416;59.258;18.128;2022-09-02T03:28:00;4.43;;;4.32;;
10729;SDS011;5416;59.258;18.128;2022-09-02T03:30:28;4.30;;;4.20;;
10729;SDS011;5416;59.258;18.128;2022-09-02T03:32:56;3.83;;;3.72;;
10729;SDS011;5416;59.258;18.128;2022-09-02T03:35:24;3.95;;;3.85;;
10729;SDS011;5416;59.258;18.128;2022-09-02T03:37:52;3.90;;;3.80;;
10729;SDS011;5416;59.258;18.128;2022-09-02T03:40:21;3.72;;;3.63;;
10729;SDS011;5416;59.258;18.128;2022-09-02T03:42:50;3.70;;;3.60;;
10729;SDS011;5416;59.258;18.128;2022-09-02T03:45:18;3.28;;;3.17;;
10729;SDS011;5416;59.258;18.128;2022-09-02T03:47:46;3.55;;;3.45;;
10729;SDS011;5416;59.258;18.128;2022-09-02T03:50:18;4.27;;;4.17;;
10729;SDS011;5416;59.258;18.128;2022-09-02T03:52:46;3.80;;;3.70;;
10729;SDS011;5416;59.258;18.128;2022-09-02T03:55:13;3.75;;;3.65;;
10729;SDS011;5416;59.258;18.128;2022-09-02T03:57:42;3.92;;;3.83;;
10729;SDS011;5416;59.258;18.128;2022-09-02T04:00:10;4.10;;;4.00;;
10729;SDS011;5416;59.258;18.128;2022-09-02T04:02:38;4.30;;;4.20;;
10729;SDS011;5416;59.258;18.128;2022-09-02T04:05:06;4.63;;;4.50;;
10729;SDS011;5416;59.258;18.128;2022-09-02T04:07:33;4.18;;;4.07;;
10729;SDS011;5416;59.258;18.128;2022-09-02T04:10:03;4.25;;;4.15;;
10729;SDS011;5416;59.258;18.128;2022-09-02T04:12:33;3.80;;;3.70;;
10729;SDS011;5416;59.258;18.128;2022-09-02T04:15:01;4.22;;;4.13;;
10729;SDS011;5416;59.258;18.128;2022-09-02T04:17:29;4.03;;;3.92;;
10729;SDS011;5416;59.258;18.128;2022-09-02T04:19:56;3.60;;;3.50;;
10729;SDS011;5416;59.258;18.128;2022-09-02T04:22:23;4.20;;;4.10;;
10729;SDS011;5416;59.258;18.128;2022-09-02T04:24:51;3.95;;;3.85;;
10729;SDS011;5416;59.258;18.128;2022-09-02T04:27:18;4.38;;;4.28;;
10729;SDS011;5416;59.258;18.128;2022-09-02T04:29:45;3.65;;;3.55;;
10729;SDS011;5416;59.258;18.128;2022-09-02T04:32:14;3.90;;;3.80;;
10729;SDS011;5416;59.258;18.128;2022-09-02T04:34:41;3.87;;;3.77;;
10729;SDS011;5416;59.258;18.128;2022-09-02T04:37:09;3.83;;;3.72;;
10729;SDS011;5416;59.258;18.128;2022-09-02T04:39:37;3.75;;;3.65;;
10729;SDS011;5416;59.258;18.128;2022-09-02T04:42:04;3.80;;;3.70;;
10729;SDS011;5416;59.258;18.128;2022-09-02T04:44:32;3.80;;;3.70;;
10729;SDS011;5416;59.258;18.128;2022-09-02T04:46:59;3.78;;;3.67;;
10729;SDS011;5416;59.258;18.128;2022-09-02T04:49:28;3.78;;;3.67;;
10729;SDS011;5416;59.258;18.128;2022-09-02T04:51:57;3.80;;;3.70;;
10729;SDS011;5416;59.258;18.128;2022-09-02T04:54:24;3.83;;;3.73;;
10729;SDS011;5416;59.258;18.128;2022-09-02T04:56:52;3.75;;;3.65;;
10729;SDS011;5416;59.258;18.128;2022-09-02T04:59:19;3.80;;;3.70;;
10729;SDS011;5416;59.258;18.128;2022-09-02T05:01:46;3.85;;;3.75;;
10729;SDS011;5416;59.258;18.128;2022-09-02T05:04:14;4.07;;;3.97;;
10729;SDS011;5416;59.258;18.128;2022-09-02T05:06:43;4.25;;;4.15;;
10729;SDS011;5416;59.258;18.128;2022-09-02T05:09:11;4.70;;;4.57;;
10729;SDS011;5416;59.258;18.128;2022-09-02T05:11:39;4.40;;;4.30;;
10729;SDS011;5416;59.258;18.128;2022-09-02T05:14:06;3.92;;;3.83;;
10729;SDS011;5416;59.258;18.128;2022-09-02T05:16:35;4.10;;;4.00;;
10729;SDS011;5416;59.258;18.128;2022-09-02T05:19:04;4.00;;;3.90;;
10729;SDS011;5416;59.258;18.128;2022-09-02T05:21:32;3.67;;;3.58;;
10729;SDS011;5416;59.258;18.128;2022-09-02T05:24:01;3.55;;;3.45;;
10729;SDS011;5416;59.258;18.128;2022-09-02T05:26:29;3.95;;;3.85;;
10729;SDS011;5416;59.258;18.128;2022-09-02T05:29:00;4.13;;;4.03;;
10729;SDS011;5416;59.258;18.128;2022-09-02T05:31:27;4.30;;;4.20;;
10729;SDS011;5416;59.258;18.128;2022-09-02T05:33:55;4.05;;;3.95;;
10729;SDS011;5416;59.258;18.128;2022-09-02T05:36:22;3.63;;;3.53;;
10729;SDS011;5416;59.258;18.128;2022-09-02T05:38:49;3.90;;;3.80;;
10729;SDS011;5416;59.258;18.128;2022-09-02T05:41:18;3.92;;;3.83;;
10729;SDS011;5416;59.258;18.128;2022-09-02T05:43:47;4.28;;;4.18;;
10729;SDS011;5416;59.258;18.128;2022-09-02T05:46:15;3.83;;;3.72;;
10729;SDS011;5416;59.258;18.128;2022-09-02T05:48:44;3.95;;;3.85;;
10729;SDS011;5416;59.258;18.128;2022-09-02T05:51:29;3.78;;;3.67;;
10729;SDS011;5416;59.258;18.128;2022-09-02T05:53:57;4.03;;;3.92;;
10729;SDS011;5416;59.258;18.128;2022-09-02T05:56:27;4.80;;;4.60;;
10729;SDS011;5416;59.258;18.128;2022-09-02T05:58:54;3.93;;;3.83;;
10729;SDS011;5416;59.258;18.128;2022-09-02T06:01:22;4.05;;;3.95;;
10729;SDS011;5416;59.258;18.128;2022-09-02T06:03:50;3.95;;;3.85;;
10729;SDS011;5416;59.258;18.128;2022-09-02T06:06:18;4.22;;;4.13;;
10729;SDS011;5416;59.258;18.128;2022-09-02T06:08:48;4.10;;;4.00;;
10729;SDS011;5416;59.258;18.128;2022-09-02T06:11:15;3.70;;;3.60;;
10729;SDS011;5416;59.258;18.128;2022-09-02T06:13:45;3.92;;;3.83;;
10729;SDS011;5416;59.258;18.128;2022-09-02T06:16:13;3.90;;;3.80;;
10729;SDS011;5416;59.258;18.128;2022-09-02T06:18:43;4.07;;;3.97;;
10729;SDS011;5416;59.258;18.128;2022-09-02T06:21:10;3.88;;;3.78;;
10729;SDS011;5416;59.258;18.128;2022-09-02T06:23:38;3.33;;;3.22;;
10729;SDS011;5416;59.258;18.128;2022-09-02T06:26:06;3.75;;;3.65;;
10729;SDS011;5416;59.258;18.128;2022-09-02T06:28:33;3.58;;;3.47;;
10729;SDS011;5416;59.258;18.128;2022-09-02T06:31:06;3.55;;;3.45;;
10729;SDS011;5416;59.258;18.128;2022-09-02T06:33:33;3.25;;;3.15;;
10729;SDS011;5416;59.258;18.128;2022-09-02T06:36:04;3.63;;;3.53;;
10729;SDS011;5416;59.258;18.128;2022-09-02T06:38:31;3.28;;;3.17;;
10729;SDS011;5416;59.258;18.128;2022-09-02T06:41:01;3.43;;;3.33;;
10729;SDS011;5416;59.258;18.128;2022-09-02T06:43:29;3.60;;;3.50;;
10729;SDS011;5416;59.258;18.128;2022-09-02T06:45:56;3.20;;;3.10;;
10729;SDS011;5416;59.258;18.128;2022-09-02T06:48:25;3.20;;;3.10;;
10729;SDS011;5416;59.258;18.128;2022-09-02T06:50:53;3.33;;;3.22;;
10729;SDS011;5416;59.258;18.128;2022-09-02T06:53:20;3.22;;;3.13;;
10729;SDS011;5416;59.258;18.128;2022-09-02T06:55:48;3.50;;;3.40;;
10729;SDS011;5416;59.258;18.128;2022-09-02T06:58:16;3.17;;;3.08;;
10729;SDS011;5416;59.258;18.128;2022-09-02T07:00:43;3.10;;;3.00;;
10729;SDS011;5416;59.258;18.128;2022-09-02T07:03:10;3.38;;;3.28;;
10729;SDS011;5416;59.258;18.128;2022-09-02T07:06:04;3.22;;;3.13;;
10729;SDS011;5416;59.258;18.128;2022-09-02T07:08:33;3.38;;;3.28;;
10729;SDS011;5416;59.258;18.128;2022-09-02T07:11:01;3.00;;;2.90;;
10729;SDS011;5416;59.258;18.128;2022-09-02T07:13:29;3.30;;;3.20;;
10729;SDS011;5416;59.258;18.128;2022-09-02T07:15:56;3.27;;;3.17;;
10729;SDS011;5416;59.258;18.128;2022-09-02T07:18:23;3.35;;;3.25;;
10729;SDS011;5416;59.258;18.128;2022-09-02T07:20:51;3.17;;;3.08;;
10729;SDS011;5416;59.258;18.128;2022-09-02T07:23:20;3.20;;;3.10;;
10729;SDS011;5416;59.258;18.128;2022-09-02T07:25:47;3.10;;;3.00;;
10729;SDS011;5416;59.258;18.128;2022-09-02T07:28:14;3.30;;;3.20;;
10729;SDS011;5416;59.258;18.128;2022-09-02T07:30:42;3.00;;;2.90;;
10729;SDS011;5416;59.258;18.128;2022-09-02T07:33:10;3.17;;;3.07;;
10729;SDS011;5416;59.258;18.128;2022-09-02T07:35:38;3.40;;;3.30;;
10729;SDS011;5416;59.258;18.128;2022-09-02T07:38:06;3.10;;;3.00;;
10729;SDS011;5416;59.258;18.128;2022-09-02T07:40:35;3.30;;;3.20;;
10729;SDS011;5416;59.258;18.128;2022-09-02T07:43:04;3.10;;;3.00;;
10729;SDS011;5416;59.258;18.128;2022-09-02T07:45:32;3.13;;;3.03;;
10729;SDS011;5416;59.258;18.128;2022-09-02T07:48:00;3.20;;;3.10;;
10729;SDS011;5416;59.258;18.128;2022-09-02T07:50:31;3.30;;;3.20;;
10729;SDS011;5416;59.258;18.128;2022-09-02T07:52:59;2.90;;;2.80;;
10729;SDS011;5416;59.258;18.128;2022-09-02T07:55:31;3.30;;;3.20;;
10729;SDS011;5416;59.258;18.128;2022-09-02T07:58:00;3.30;;;3.20;;
10729;SDS011;5416;59.258;18.128;2022-09-02T08:00:27;2.92;;;2.83;;
10729;SDS011;5416;59.258;18.128;2022-09-02T08:02:55;2.90;;;2.80;;
10729;SDS011;5416;59.258;18.128;2022-09-02T08:05:22;3.15;;;3.05;;
10729;SDS011;5416;59.258;18.128;2022-09-02T08:07:50;3.30;;;3.20;;
10729;SDS011;5416;59.258;18.128;2022-09-02T08:10:17;3.00;;;2.90;;
10729;SDS011;5416;59.258;18.128;2022-09-02T08:12:45;3.40;;;3.30;;
10729;SDS011;5416;59.258;18.128;2022-09-02T08:15:15;3.70;;;3.60;;
10729;SDS011;5416;59.258;18.128;2022-09-02T08:17:44;3.80;;;3.70;;
10729;SDS011;5416;59.258;18.128;2022-09-02T08:20:12;4.10;;;4.00;;
10729;SDS011;5416;59.258;18.128;2022-09-02T08:22:40;3.85;;;3.75;;
10729;SDS011;5416;59.258;18.128;2022-09-02T08:25:08;4.00;;;3.90;;
10729;SDS011;5416;59.258;18.128;2022-09-02T08:27:36;4.13;;;4.03;;
10729;SDS011;5416;59.258;18.128;2022-09-02T08:30:04;4.25;;;4.15;;
10729;SDS011;5416;59.258;18.128;2022-09-02T08:32:35;4.22;;;4.13;;
10729;SDS011;5416;59.258;18.128;2022-09-02T08:35:03;3.90;;;3.80;;
10729;SDS011;5416;59.258;18.128;2022-09-02T08:37:31;3.97;;;3.88;;
10729;SDS011;5416;59.258;18.128;2022-09-02T08:39:58;3.50;;;3.40;;
10729;SDS011;5416;59.258;18.128;2022-09-02T08:42:29;3.13;;;3.03;;
10729;SDS011;5416;59.258;18.128;2022-09-02T08:44:58;3.35;;;3.25;;
10729;SDS011;5416;59.258;18.128;2022-09-02T08:47:29;3.20;;;3.10;;
10729;SDS011;5416;59.258;18.128;2022-09-02T08:50:02;3.40;;;3.30;;
10729;SDS011;5416;59.258;18.128;2022-09-02T08:52:32;3.00;;;2.90;;
10729;SDS011;5416;59.258;18.128;2022-09-02T08:55:02;2.80;;;2.70;;
10729;SDS011;5416;59.258;18.128;2022-09-02T08:57:31;3.00;;;2.90;;
10729;SDS011;5416;59.258;18.128;2022-09-02T08:59:59;3.17;;;3.08;;
10729;SDS011;5416;59.258;18.128;2022-09-02T09:02:29;3.40;;;3.30;;
10729;SDS011;5416;59.258;18.128;2022-09-02T09:07:45;3.40;;;3.30;;
10729;SDS011;5416;59.258;18.128;2022-09-02T09:10:17;3.20;;;3.10;;
10729;SDS011;5416;59.258;18.128;2022-09-02T09:12:52;3.20;;;3.10;;
10729;SDS011;5416;59.258;18.128;2022-09-02T09:15:21;3.30;;;3.20;;
10729;SDS011;5416;59.258;18.128;2022-09-02T09:17:51;3.20;;;3.10;;
10729;SDS011;5416;59.258;18.128;2022-09-02T09:20:23;3.22;;;3.13;;
10729;SDS011;5416;59.258;18.128;2022-09-02T09:22:54;3.45;;;3.35;;
10729;SDS011;5416;59.258;18.128;2022-09-02T09:25:22;3.30;;;3.20;;
10729;SDS011;5416;59.258;18.128;2022-09-02T09:27:54;3.20;;;3.10;;
10729;SDS011;5416;59.258;18.128;2022-09-02T09:30:22;3.78;;;3.67;;
10729;SDS011;5416;59.258;18.128;2022-09-02T09:32:50;3.90;;;3.80;;
10729;SDS011;5416;59.258;18.128;2022-09-02T09:35:19;4.28;;;4.18;;
10729;SDS011;5416;59.258;18.128;2022-09-02T09:37:47;4.40;;;4.30;;
10729;SDS011;5416;59.258;18.128;2022-09-02T09:40:21;4.20;;;4.10;;
10729;SDS011;5416;59.258;18.128;2022-09-02T09:42:49;4.45;;;4.35;;
10729;SDS011;5416;59.258;18.128;2022-09-02T09:45:19;4.32;;;4.22;;
10729;SDS011;5416;59.258;18.128;2022-09-02T09:50:29;4.03;;;3.92;;
10729;SDS011;5416;59.258;18.128;2022-09-02T09:53:07;4.10;;;4.00;;
10729;SDS011;5416;59.258;18.128;2022-09-02T09:55:49;3.90;;;3.80;;
10729;SDS011;5416;59.258;18.128;2022-09-02T09:58:16;3.67;;;3.58;;
10729;SDS011;5416;59.258;18.128;2022-09-02T10:00:44;3.50;;;3.40;;
10729;SDS011;5416;59.258;18.128;2022-09-02T10:03:17;3.30;;;3.20;;
10729;SDS011;5416;59.258;18.128;2022-09-02T10:05:46;3.30;;;3.20;;
10729;SDS011;5416;59.258;18.128;2022-09-02T10:08:18;3.40;;;3.30;;
10729;SDS011;5416;59.258;18.128;2022-09-02T10:10:55;3.63;;;3.53;;
10729;SDS011;5416;59.258;18.128;2022-09-02T10:13:23;3.95;;;3.85;;
10729;SDS011;5416;59.258;18.128;2022-09-02T10:15:56;4.30;;;4.20;;
10729;SDS011;5416;59.258;18.128;2022-09-02T10:18:27;4.97;;;4.78;;
10729;SDS011;5416;59.258;18.128;2022-09-02T10:20:59;4.60;;;4.50;;
10729;SDS011;5416;59.258;18.128;2022-09-02T10:23:34;4.63;;;4.45;;
10729;SDS011;5416;59.258;18.128;2022-09-02T10:26:08;4.47;;;4.38;;
10729;SDS011;5416;59.258;18.128;2022-09-02T10:28:41;4.65;;;4.50;;
10729;SDS011;5416;59.258;18.128;2022-09-02T10:31:14;4.68;;;4.53;;
10729;SDS011;5416;59.258;18.128;2022-09-02T10:33:45;4.25;;;4.15;;
10729;SDS011;5416;59.258;18.128;2022-09-02T10:36:19;4.68;;;4.55;;
10729;SDS011;5416;59.258;18.128;2022-09-02T10:38:53;4.53;;;4.43;;
10729;SDS011;5416;59.258;18.128;2022-09-02T10:44:19;5.03;;;4.82;;
10729;SDS011;5416;59.258;18.128;2022-09-02T10:46:49;4.97;;;4.77;;
10729;SDS011;5416;59.258;18.128;2022-09-02T10:49:21;4.07;;;3.97;;
10729;SDS011;5416;59.258;18.128;2022-09-02T10:51:52;4.25;;;4.15;;
10729;SDS011;5416;59.258;18.128;2022-09-02T10:54:24;4.15;;;4.05;;
10729;SDS011;5416;59.258;18.128;2022-09-02T10:56:54;3.63;;;3.53;;
10729;SDS011;5416;59.258;18.128;2022-09-02T10:59:27;3.50;;;3.40;;
10729;SDS011;5416;59.258;18.128;2022-09-02T11:01:58;3.45;;;3.35;;
10729;SDS011;5416;59.258;18.128;2022-09-02T11:04:31;3.22;;;3.13;;
10729;SDS011;5416;59.258;18.128;2022-09-02T11:07:03;3.60;;;3.50;;
10729;SDS011;5416;59.258;18.128;2022-09-02T11:09:32;3.72;;;3.63;;
10729;SDS011;5416;59.258;18.128;2022-09-02T11:12:03;3.90;;;3.80;;
10729;SDS011;5416;59.258;18.128;2022-09-02T11:14:34;3.60;;;3.50;;
10729;SDS011;5416;59.258;18.128;2022-09-02T11:17:04;3.42;;;3.33;;
10729;SDS011;5416;59.258;18.128;2022-09-02T11:19:34;3.72;;;3.63;;
10729;SDS011;5416;59.258;18.128;2022-09-02T11:22:06;3.58;;;3.47;;
10729;SDS011;5416;59.258;18.128;2022-09-02T11:24:39;3.63;;;3.53;;
10729;SDS011;5416;59.258;18.128;2022-09-02T11:27:08;3.53;;;3.43;;
10729;SDS011;5416;59.258;18.128;2022-09-02T11:29:43;3.72;;;3.63;;
10729;SDS011;5416;59.258;18.128;2022-09-02T11:32:16;3.42;;;3.33;;
10729;SDS011;5416;59.258;18.128;2022-09-02T11:34:45;3.85;;;3.75;;
10729;SDS011;5416;59.258;18.128;2022-09-02T11:37:21;4.20;;;4.10;;
10729;SDS011;5416;59.258;18.128;2022-09-02T11:39:51;4.22;;;4.13;;
10729;SDS011;5416;59.258;18.128;2022-09-02T11:42:26;4.40;;;4.30;;
10729;SDS011;5416;59.258;18.128;2022-09-02T11:45:03;4.40;;;4.30;;
10729;SDS011;5416;59.258;18.128;2022-09-02T11:50:28;4.37;;;4.27;;
10729;SDS011;5416;59.258;18.128;2022-09-02T11:53:02;4.47;;;4.38;;
10729;SDS011;5416;59.258;18.128;2022-09-02T11:55:33;4.32;;;4.22;;
10729;SDS011;5416;59.258;18.128;2022-09-02T11:58:02;3.88;;;3.78;;
10729;SDS011;5416;59.258;18.128;2022-09-02T12:00:32;4.00;;;3.90;;
10729;SDS011;5416;59.258;18.128;2022-09-02T12:03:08;4.40;;;4.30;;
10729;SDS011;5416;59.258;18.128;2022-09-02T12:05:44;4.13;;;4.03;;
10729;SDS011;5416;59.258;18.128;2022-09-02T12:10:57;4.20;;;4.10;;
10729;SDS011;5416;59.258;18.128;2022-09-02T12:13:32;4.80;;;4.60;;
10729;SDS011;5416;59.258;18.128;2022-09-02T12:19:15;4.63;;;4.43;;
10729;SDS011;5416;59.258;18.128;2022-09-02T12:21:36;4.35;;;4.25;;
10729;SDS011;5416;59.258;18.128;2022-09-02T12:24:26;4.35;;;4.25;;
10729;SDS011;5416;59.258;18.128;2022-09-02T12:27:07;4.47;;;4.38;;
10729;SDS011;5416;59.258;18.128;2022-09-02T12:29:34;4.43;;;4.32;;
10729;SDS011;5416;59.258;18.128;2022-09-02T12:32:02;4.10;;;4.00;;
10729;SDS011;5416;59.258;18.128;2022-09-02T12:34:53;4.33;;;4.23;;
10729;SDS011;5416;59.258;18.128;2022-09-02T12:40:19;3.90;;;3.80;;
10729;SDS011;5416;59.258;18.128;2022-09-02T12:42:49;4.40;;;4.30;;
10729;SDS011;5416;59.258;18.128;2022-09-02T12:45:22;4.10;;;4.00;;
10729;SDS011;5416;59.258;18.128;2022-09-02T12:47:52;4.43;;;4.32;;
10729;SDS011;5416;59.258;18.128;2022-09-02T12:50:25;4.38;;;4.28;;
10729;SDS011;5416;59.258;18.128;2022-09-02T12:53:06;3.73;;;3.63;;
10729;SDS011;5416;59.258;18.128;2022-09-02T12:55:34;4.13;;;4.03;;
10729;SDS011;5416;59.258;18.128;2022-09-02T12:58:07;3.85;;;3.75;;
10729;SDS011;5416;59.258;18.128;2022-09-02T13:00:36;3.92;;;3.83;;
10729;SDS011;5416;59.258;18.128;2022-09-02T13:03:18;4.50;;;4.40;;
10729;SDS011;5416;59.258;18.128;2022-09-02T13:05:54;4.53;;;4.43;;
10729;SDS011;5416;59.258;18.128;2022-09-02T13:08:31;4.88;;;4.68;;
10729;SDS011;5416;59.258;18.128;2022-09-02T13:13:51;5.05;;;4.85;;
10729;SDS011;5416;59.258;18.128;2022-09-02T13:16:27;4.82;;;4.63;;
10729;SDS011;5416;59.258;18.128;2022-09-02T13:19:06;5.15;;;4.95;;
10729;SDS011;5416;59.258;18.128;2022-09-02T13:24:40;4.43;;;4.32;;
10729;SDS011;5416;59.258;18.128;2022-09-02T13:32:36;4.25;;;4.15;;
10729;SDS011;5416;59.258;18.128;2022-09-02T13:35:05;4.93;;;4.72;;
10729;SDS011;5416;59.258;18.128;2022-09-02T13:37:33;4.97;;;4.78;;
10729;SDS011;5416;59.258;18.128;2022-09-02T13:40:04;5.00;;;4.80;;
10729;SDS011;5416;59.258;18.128;2022-09-02T13:42:32;5.13;;;4.93;;
10729;SDS011;5416;59.258;18.128;2022-09-02T13:45:12;4.22;;;4.13;;
10729;SDS011;5416;59.258;18.128;2022-09-02T13:47:40;4.80;;;4.60;;
10729;SDS011;5416;59.258;18.128;2022-09-02T13:50:08;4.50;;;4.40;;
10729;SDS011;5416;59.258;18.128;2022-09-02T13:52:36;4.70;;;4.55;;
10729;SDS011;5416;59.258;18.128;2022-09-02T13:55:06;4.38;;;4.28;;
10729;SDS011;5416;59.258;18.128;2022-09-02T13:57:35;4.05;;;3.95;;
10729;SDS011;5416;59.258;18.128;2022-09-02T14:00:03;4.40;;;4.30;;
10729;SDS011;5416;59.258;18.128;2022-09-02T14:02:32;4.77;;;4.57;;
10729;SDS011;5416;59.258;18.128;2022-09-02T14:05:00;4.20;;;4.10;;
10729;SDS011;5416;59.258;18.128;2022-09-02T14:07:32;4.30;;;4.20;;
10729;SDS011;5416;59.258;18.128;2022-09-02T14:10:02;4.20;;;4.10;;
10729;SDS011;5416;59.258;18.128;2022-09-02T14:12:31;4.43;;;4.32;;
10729;SDS011;5416;59.258;18.128;2022-09-02T14:14:59;4.03;;;3.92;;
10729;SDS011;5416;59.258;18.128;2022-09-02T14:17:28;4.47;;;4.37;;
10729;SDS011;5416;59.258;18.128;2022-09-02T14:20:08;4.60;;;4.50;;
10729;SDS011;5416;59.258;18.128;2022-09-02T14:22:36;4.38;;;4.28;;
10729;SDS011;5416;59.258;18.128;2022-09-02T14:25:08;4.30;;;4.20;;
10729;SDS011;5416;59.258;18.128;2022-09-02T14:27:36;4.30;;;4.20;;
10729;SDS011;5416;59.258;18.128;2022-09-02T14:30:05;4.55;;;4.45;;
10729;SDS011;5416;59.258;18.128;2022-09-02T14:32:34;4.97;;;4.78;;
10729;SDS011;5416;59.258;18.128;2022-09-02T14:35:09;4.82;;;4.65;;
10729;SDS011;5416;59.258;18.128;2022-09-02T14:40:30;5.47;;;5.28;;
10729;SDS011;5416;59.258;18.128;2022-09-02T14:42:59;4.53;;;4.43;;
10729;SDS011;5416;59.258;18.128;2022-09-02T14:45:27;4.80;;;4.60;;
10729;SDS011;5416;59.258;18.128;2022-09-02T14:47:55;4.85;;;4.65;;
10729;SDS011;5416;59.258;18.128;2022-09-02T14:50:25;5.13;;;4.93;;
10729;SDS011;5416;59.258;18.128;2022-09-02T14:52:55;4.60;;;4.50;;
10729;SDS011;5416;59.258;18.128;2022-09-02T14:55:43;4.88;;;4.68;;
10729;SDS011;5416;59.258;18.128;2022-09-02T14:58:12;5.00;;;4.80;;
10729;SDS011;5416;59.258;18.128;2022-09-02T15:00:39;4.75;;;4.57;;
10729;SDS011;5416;59.258;18.128;2022-09-02T15:03:06;4.32;;;4.22;;
10729;SDS011;5416;59.258;18.128;2022-09-02T15:05:34;4.40;;;4.30;;
10729;SDS011;5416;59.258;18.128;2022-09-02T15:08:01;4.50;;;4.40;;
10729;SDS011;5416;59.258;18.128;2022-09-02T15:10:29;4.40;;;4.30;;
10729;SDS011;5416;59.258;18.128;2022-09-02T15:12:57;4.00;;;3.90;;
10729;SDS011;5416;59.258;18.128;2022-09-02T15:15:26;5.10;;;4.90;;
10729;SDS011;5416;59.258;18.128;2022-09-02T15:17:54;4.30;;;4.20;;
10729;SDS011;5416;59.258;18.128;2022-09-02T15:20:21;4.88;;;4.68;;
10729;SDS011;5416;59.258;18.128;2022-09-02T15:22:48;4.47;;;4.38;;
10729;SDS011;5416;59.258;18.128;2022-09-02T15:25:17;4.80;;;4.60;;
10729;SDS011;5416;59.258;18.128;2022-09-02T15:27:44;4.55;;;4.45;;
10729;SDS011;5416;59.258;18.128;2022-09-02T15:30:12;3.80;;;3.70;;
10729;SDS011;5416;59.258;18.128;2022-09-02T15:32:40;4.55;;;4.43;;
10729;SDS011;5416;59.258;18.128;2022-09-02T15:35:09;4.47;;;4.38;;